sensor_id;sensor_type;location;lat;lon;timestamp;P1;P2;P0
33507;PMS7003;25568;37.410;-122.096;2024-01-30T00:00:52;0.25;0.00;0.00
33507;PMS7003;25568;37.410;-122.096;2024-01-30T00:03:21;0.00;0.00;0.00
33507;PMS7003;25568;37.410;-122.096;2024-01-30T00:05:50;0.00;0.00;0.00
33507;PMS7003;25568;37.410;-122.096;2024-01-30T00:08:19;0.00;0.00;0.00
33507;PMS7003;25568;37.410;-122.096;2024-01-30T00:10:49;0.00;0.00;0.00
33507;PMS7003;25568;37.410;-122.096;2024-01-30T00:13:19;1.00;0.00;0.00
33507;PMS7003;25568;37.410;-122.096;2024-01-30T00:15:48;1.00;0.00;0.00
33507;PMS7003;25568;37.410;-122.096;2024-01-30T00:18:19;0.00;0.00;0.00
33507;PMS7003;25568;37.410;-122.096;2024-01-30T00:20:49;0.50;0.50;0.00
33507;PMS7003;25568;37.410;-122.096;2024-01-30T00:23:19;0.00;0.00;0.00
33507;PMS7003;25568;37.410;-122.096;2024-01-30T00:25:48;0.50;0.50;0.50
33507;PMS7003;25568;37.410;-122.096;2024-01-30T00:28:18;0.00;0.00;0.00
33507;PMS7003;25568;37.410;-122.096;2024-01-30T00:30:51;0.00;0.00;0.00
33507;PMS7003;25568;37.410;-122.096;2024-01-30T00:33:23;0.25;0.25;0.00
33507;PMS7003;25568;37.410;-122.096;2024-01-30T00:35:52;0.00;0.00;0.00
33507;PMS7003;25568;37.410;-122.096;2024-01-30T00:38:21;0.00;0.00;0.00
33507;PMS7003;25568;37.410;-122.096;2024-01-30T00:40:51;0.00;0.00;0.00
33507;PMS7003;25568;37.410;-122.096;2024-01-30T00:43:20;0.00;0.00;0.00
33507;PMS7003;25568;37.410;-122.096;2024-01-30T00:45:53;0.25;0.25;0.25
33507;PMS7003;25568;37.410;-122.096;2024-01-30T00:48:23;0.75;0.75;0.75
33507;PMS7003;25568;37.410;-122.096;2024-01-30T00:50:53;0.75;0.25;0.25
33507;PMS7003;25568;37.410;-122.096;2024-01-30T00:53:22;0.00;0.00;0.00
33507;PMS7003;25568;37.410;-122.096;2024-01-30T00:55:53;1.00;1.00;1.00
33507;PMS7003;25568;37.410;-122.096;2024-01-30T00:58:22;0.00;0.00;0.00
33507;PMS7003;25568;37.410;-122.096;2024-01-30T01:00:53;0.00;0.00;0.00
33507;PMS7003;25568;37.410;-122.096;2024-01-30T01:03:23;0.00;0.00;0.00
33507;PMS7003;25568;37.410;-122.096;2024-01-30T01:05:52;0.00;0.00;0.00
33507;PMS7003;25568;37.410;-122.096;2024-01-30T01:08:21;0.00;0.00;0.00
33507;PMS7003;25568;37.410;-122.096;2024-01-30T01:10:50;0.25;0.25;0.25
33507;PMS7003;25568;37.410;-122.096;2024-01-30T01:13:20;0.00;0.00;0.00
33507;PMS7003;25568;37.410;-122.096;2024-01-30T01:15:49;0.00;0.00;0.00
33507;PMS7003;25568;37.410;-122.096;2024-01-30T01:18:21;0.00;0.00;0.00
33507;PMS7003;25568;37.410;-122.096;2024-01-30T01:20:50;0.00;0.00;0.00
33507;PMS7003;25568;37.410;-122.096;2024-01-30T01:23:20;0.67;0.00;0.00
33507;PMS7003;25568;37.410;-122.096;2024-01-30T01:25:50;0.00;0.00;0.00
33507;PMS7003;25568;37.410;-122.096;2024-01-30T01:28:19;0.00;0.00;0.00
33507;PMS7003;25568;37.410;-122.096;2024-01-30T01:30:48;0.00;0.00;0.00
33507;PMS7003;25568;37.410;-122.096;2024-01-30T01:33:18;0.00;0.00;0.00
33507;PMS7003;25568;37.410;-122.096;2024-01-30T01:35:50;0.00;0.00;0.00
33507;PMS7003;25568;37.410;-122.096;2024-01-30T01:38:19;0.00;0.00;0.00
33507;PMS7003;25568;37.410;-122.096;2024-01-30T01:40:48;0.00;0.00;0.00
33507;PMS7003;25568;37.410;-122.096;2024-01-30T01:43:18;0.00;0.00;0.00
33507;PMS7003;25568;37.410;-122.096;2024-01-30T01:45:48;0.00;0.00;0.00
33507;PMS7003;25568;37.410;-122.096;2024-01-30T01:48:20;0.00;0.00;0.00
33507;PMS7003;25568;37.410;-122.096;2024-01-30T01:50:50;1.00;0.00;0.00
33507;PMS7003;25568;37.410;-122.096;2024-01-30T01:53:20;0.00;0.00;0.00
33507;PMS7003;25568;37.410;-122.096;2024-01-30T01:55:49;0.00;0.00;0.00
33507;PMS7003;25568;37.410;-122.096;2024-01-30T01:58:19;0.00;0.00;0.00
33507;PMS7003;25568;37.410;-122.096;2024-01-30T02:00:50;0.50;0.00;0.00
33507;PMS7003;25568;37.410;-122.096;2024-01-30T02:03:23;0.00;0.00;0.00
33507;PMS7003;25568;37.410;-122.096;2024-01-30T02:05:53;1.00;0.00;0.00
33507;PMS7003;25568;37.410;-122.096;2024-01-30T02:08:24;0.75;0.75;0.75
33507;PMS7003;25568;37.410;-122.096;2024-01-30T02:10:54;0.00;0.00;0.00
33507;PMS7003;25568;37.410;-122.096;2024-01-30T02:13:24;1.00;1.00;0.25
33507;PMS7003;25568;37.410;-122.096;2024-01-30T02:15:53;1.00;0.00;0.00
33507;PMS7003;25568;37.410;-122.096;2024-01-30T02:18:24;0.00;0.00;0.00
33507;PMS7003;25568;37.410;-122.096;2024-01-30T02:20:53;0.25;0.25;0.25
33507;PMS7003;25568;37.410;-122.096;2024-01-30T02:23:29;0.00;0.00;0.00
33507;PMS7003;25568;37.410;-122.096;2024-01-30T02:26:01;1.00;0.25;0.00
33507;PMS7003;25568;37.410;-122.096;2024-01-30T02:28:31;1.00;1.00;1.00
33507;PMS7003;25568;37.410;-122.096;2024-01-30T02:31:01;2.50;0.75;0.25
33507;PMS7003;25568;37.410;-122.096;2024-01-30T02:33:30;1.75;1.75;1.75
33507;PMS7003;25568;37.410;-122.096;2024-01-30T02:35:59;3.00;3.00;3.00
33507;PMS7003;25568;37.410;-122.096;2024-01-30T02:38:31;4.50;2.75;2.75
33507;PMS7003;25568;37.410;-122.096;2024-01-30T02:41:00;3.00;3.00;3.00
33507;PMS7003;25568;37.410;-122.096;2024-01-30T02:43:30;5.33;5.00;4.67
33507;PMS7003;25568;37.410;-122.096;2024-01-30T02:45:59;7.00;6.00;6.00
33507;PMS7003;25568;37.410;-122.096;2024-01-30T02:48:28;6.00;6.00;5.33
33507;PMS7003;25568;37.410;-122.096;2024-01-30T02:50:57;6.00;6.00;6.00
33507;PMS7003;25568;37.410;-122.096;2024-01-30T02:53:27;8.00;8.00;7.33
33507;PMS7003;25568;37.410;-122.096;2024-01-30T02:55:59;7.67;7.67;7.00
33507;PMS7003;25568;37.410;-122.096;2024-01-30T02:58:35;6.00;6.00;6.00
33507;PMS7003;25568;37.410;-122.096;2024-01-30T03:01:05;5.75;5.00;5.00
33507;PMS7003;25568;37.410;-122.096;2024-01-30T03:03:34;8.00;7.00;6.00
33507;PMS7003;25568;37.410;-122.096;2024-01-30T03:06:05;6.00;6.00;5.50
33507;PMS7003;25568;37.410;-122.096;2024-01-30T03:08:35;5.00;4.25;4.25
33507;PMS7003;25568;37.410;-122.096;2024-01-30T03:11:06;4.50;4.50;4.00
33507;PMS7003;25568;37.410;-122.096;2024-01-30T03:13:35;6.00;5.00;4.50
33507;PMS7003;25568;37.410;-122.096;2024-01-30T03:16:05;4.00;4.00;3.75
33507;PMS7003;25568;37.410;-122.096;2024-01-30T03:18:37;3.00;3.00;3.00
33507;PMS7003;25568;37.410;-122.096;2024-01-30T03:21:06;3.00;3.00;3.00
33507;PMS7003;25568;37.410;-122.096;2024-01-30T03:23:35;2.00;1.50;1.00
33507;PMS7003;25568;37.410;-122.096;2024-01-30T03:26:07;3.25;3.25;3.25
33507;PMS7003;25568;37.410;-122.096;2024-01-30T03:28:38;4.00;4.00;3.00
33507;PMS7003;25568;37.410;-122.096;2024-01-30T03:31:07;2.50;2.50;2.25
33507;PMS7003;25568;37.410;-122.096;2024-01-30T03:33:39;2.00;2.00;2.00
33507;PMS7003;25568;37.410;-122.096;2024-01-30T03:36:08;2.50;2.50;2.00
33507;PMS7003;25568;37.410;-122.096;2024-01-30T03:38:38;2.00;2.00;2.00
33507;PMS7003;25568;37.410;-122.096;2024-01-30T03:41:10;3.25;3.25;2.25
33507;PMS7003;25568;37.410;-122.096;2024-01-30T03:43:40;2.25;2.25;2.00
33507;PMS7003;25568;37.410;-122.096;2024-01-30T03:46:11;3.25;2.00;2.00
33507;PMS7003;25568;37.410;-122.096;2024-01-30T03:48:41;2.00;2.00;2.00
33507;PMS7003;25568;37.410;-122.096;2024-01-30T03:51:10;2.00;2.00;2.00
33507;PMS7003;25568;37.410;-122.096;2024-01-30T03:53:41;1.75;1.75;1.00
33507;PMS7003;25568;37.410;-122.096;2024-01-30T03:56:15;1.00;1.00;1.00
33507;PMS7003;25568;37.410;-122.096;2024-01-30T03:58:44;2.00;1.75;1.50
33507;PMS7003;25568;37.410;-122.096;2024-01-30T04:01:14;2.00;2.00;2.00
33507;PMS7003;25568;37.410;-122.096;2024-01-30T04:03:44;2.00;1.75;1.75
33507;PMS7003;25568;37.410;-122.096;2024-01-30T04:06:13;1.50;1.50;1.00
33507;PMS7003;25568;37.410;-122.096;2024-01-30T04:08:42;2.00;2.00;2.00
33507;PMS7003;25568;37.410;-122.096;2024-01-30T04:11:11;2.75;2.00;2.00
33507;PMS7003;25568;37.410;-122.096;2024-01-30T04:13:42;1.25;1.25;1.25
33507;PMS7003;25568;37.410;-122.096;2024-01-30T04:16:19;2.00;2.00;2.00
33507;PMS7003;25568;37.410;-122.096;2024-01-30T04:18:48;1.00;1.00;1.00
33507;PMS7003;25568;37.410;-122.096;2024-01-30T04:21:18;1.25;1.25;1.00
33507;PMS7003;25568;37.410;-122.096;2024-01-30T04:23:50;2.00;1.00;1.00
33507;PMS7003;25568;37.410;-122.096;2024-01-30T04:26:21;2.00;1.00;1.00
33507;PMS7003;25568;37.410;-122.096;2024-01-30T04:28:52;1.00;1.00;1.00
33507;PMS7003;25568;37.410;-122.096;2024-01-30T04:31:21;1.00;1.00;1.00
33507;PMS7003;25568;37.410;-122.096;2024-01-30T04:33:50;0.75;0.75;0.75
33507;PMS7003;25568;37.410;-122.096;2024-01-30T04:36:21;1.75;1.00;1.00
33507;PMS7003;25568;37.410;-122.096;2024-01-30T04:38:50;1.25;1.25;1.00
33507;PMS7003;25568;37.410;-122.096;2024-01-30T04:41:19;2.00;1.00;1.00
33507;PMS7003;25568;37.410;-122.096;2024-01-30T04:43:52;1.00;1.00;1.00
33507;PMS7003;25568;37.410;-122.096;2024-01-30T04:46:21;2.00;1.33;1.00
33507;PMS7003;25568;37.410;-122.096;2024-01-30T04:48:50;2.00;1.00;1.00
33507;PMS7003;25568;37.410;-122.096;2024-01-30T04:51:20;2.00;1.25;1.25
33507;PMS7003;25568;37.410;-122.096;2024-01-30T04:53:49;1.00;1.00;1.00
33507;PMS7003;25568;37.410;-122.096;2024-01-30T04:56:19;1.00;1.00;1.00
33507;PMS7003;25568;37.410;-122.096;2024-01-30T04:58:50;2.75;2.00;2.00
33507;PMS7003;25568;37.410;-122.096;2024-01-30T05:01:19;0.75;0.75;0.75
33507;PMS7003;25568;37.410;-122.096;2024-01-30T05:03:48;2.00;1.00;1.00
33507;PMS7003;25568;37.410;-122.096;2024-01-30T05:06:24;2.75;1.00;1.00
33507;PMS7003;25568;37.410;-122.096;2024-01-30T05:08:55;1.00;1.00;1.00
33507;PMS7003;25568;37.410;-122.096;2024-01-30T05:11:25;1.00;1.00;1.00
33507;PMS7003;25568;37.410;-122.096;2024-01-30T05:13:56;1.25;1.25;1.25
33507;PMS7003;25568;37.410;-122.096;2024-01-30T05:16:25;1.00;1.00;1.00
33507;PMS7003;25568;37.410;-122.096;2024-01-30T05:18:54;1.00;1.00;1.00
33507;PMS7003;25568;37.410;-122.096;2024-01-30T05:21:24;1.00;1.00;1.00
33507;PMS7003;25568;37.410;-122.096;2024-01-30T05:23:53;1.00;1.00;1.00
33507;PMS7003;25568;37.410;-122.096;2024-01-30T05:26:22;1.00;0.75;0.75
33507;PMS7003;25568;37.410;-122.096;2024-01-30T05:28:52;0.75;0.75;0.75
33507;PMS7003;25568;37.410;-122.096;2024-01-30T05:31:23;0.75;0.75;0.75
33507;PMS7003;25568;37.410;-122.096;2024-01-30T05:33:52;1.50;1.25;1.25
33507;PMS7003;25568;37.410;-122.096;2024-01-30T05:36:23;1.25;1.25;1.25
33507;PMS7003;25568;37.410;-122.096;2024-01-30T05:38:52;1.00;1.00;1.00
33507;PMS7003;25568;37.410;-122.096;2024-01-30T05:41:22;1.00;1.00;1.00
33507;PMS7003;25568;37.410;-122.096;2024-01-30T05:43:51;1.00;1.00;1.00
33507;PMS7003;25568;37.410;-122.096;2024-01-30T05:46:20;1.00;1.00;1.00
33507;PMS7003;25568;37.410;-122.096;2024-01-30T05:48:51;1.50;1.00;1.00
33507;PMS7003;25568;37.410;-122.096;2024-01-30T05:51:20;1.75;0.75;0.75
33507;PMS7003;25568;37.410;-122.096;2024-01-30T05:53:49;1.50;1.50;1.00
33507;PMS7003;25568;37.410;-122.096;2024-01-30T05:56:18;1.00;1.00;1.00
33507;PMS7003;25568;37.410;-122.096;2024-01-30T05:58:48;1.75;1.50;1.50
33507;PMS7003;25568;37.410;-122.096;2024-01-30T06:01:17;1.25;1.00;1.00
33507;PMS7003;25568;37.410;-122.096;2024-01-30T06:03:46;0.00;0.00;0.00
33507;PMS7003;25568;37.410;-122.096;2024-01-30T06:06:18;1.00;1.00;1.00
33507;PMS7003;25568;37.410;-122.096;2024-01-30T06:08:48;1.00;1.00;1.00
33507;PMS7003;25568;37.410;-122.096;2024-01-30T06:11:18;1.25;1.00;1.00
33507;PMS7003;25568;37.410;-122.096;2024-01-30T06:13:47;1.25;1.25;1.00
33507;PMS7003;25568;37.410;-122.096;2024-01-30T06:16:16;1.00;1.00;1.00
33507;PMS7003;25568;37.410;-122.096;2024-01-30T06:18:47;1.25;1.00;1.00
33507;PMS7003;25568;37.410;-122.096;2024-01-30T06:21:18;1.00;1.00;1.00
33507;PMS7003;25568;37.410;-122.096;2024-01-30T06:23:48;1.25;1.00;1.00
33507;PMS7003;25568;37.410;-122.096;2024-01-30T06:26:17;1.00;1.00;1.00
33507;PMS7003;25568;37.410;-122.096;2024-01-30T06:28:46;1.75;0.75;0.75
33507;PMS7003;25568;37.410;-122.096;2024-01-30T06:31:16;1.00;1.00;1.00
33507;PMS7003;25568;37.410;-122.096;2024-01-30T06:33:46;1.00;1.00;0.75
33507;PMS7003;25568;37.410;-122.096;2024-01-30T06:36:15;1.00;1.00;1.00
33507;PMS7003;25568;37.410;-122.096;2024-01-30T06:38:47;1.00;1.00;1.00
33507;PMS7003;25568;37.410;-122.096;2024-01-30T06:41:16;1.00;1.00;0.75
33507;PMS7003;25568;37.410;-122.096;2024-01-30T06:43:45;0.00;0.00;0.00
33507;PMS7003;25568;37.410;-122.096;2024-01-30T06:46:15;1.00;0.75;0.50
33507;PMS7003;25568;37.410;-122.096;2024-01-30T06:48:44;2.00;1.00;0.00
33507;PMS7003;25568;37.410;-122.096;2024-01-30T06:51:14;0.00;0.00;0.00
33507;PMS7003;25568;37.410;-122.096;2024-01-30T06:53:46;1.00;1.00;0.75
33507;PMS7003;25568;37.410;-122.096;2024-01-30T06:56:16;0.00;0.00;0.00
33507;PMS7003;25568;37.410;-122.096;2024-01-30T06:58:46;0.00;0.00;0.00
33507;PMS7003;25568;37.410;-122.096;2024-01-30T07:01:16;0.00;0.00;0.00
33507;PMS7003;25568;37.410;-122.096;2024-01-30T07:03:45;0.00;0.00;0.00
33507;PMS7003;25568;37.410;-122.096;2024-01-30T07:06:15;1.00;0.50;0.00
33507;PMS7003;25568;37.410;-122.096;2024-01-30T07:08:50;0.00;0.00;0.00
33507;PMS7003;25568;37.410;-122.096;2024-01-30T07:11:19;1.00;0.00;0.00
33507;PMS7003;25568;37.410;-122.096;2024-01-30T07:13:50;2.25;0.00;0.00
33507;PMS7003;25568;37.410;-122.096;2024-01-30T07:16:19;0.00;0.00;0.00
33507;PMS7003;25568;37.410;-122.096;2024-01-30T07:18:48;0.00;0.00;0.00
33507;PMS7003;25568;37.410;-122.096;2024-01-30T07:21:18;0.00;0.00;0.00
33507;PMS7003;25568;37.410;-122.096;2024-01-30T07:23:47;0.00;0.00;0.00
33507;PMS7003;25568;37.410;-122.096;2024-01-30T07:26:19;0.00;0.00;0.00
33507;PMS7003;25568;37.410;-122.096;2024-01-30T07:28:49;0.50;0.00;0.00
33507;PMS7003;25568;37.410;-122.096;2024-01-30T07:31:21;0.00;0.00;0.00
33507;PMS7003;25568;37.410;-122.096;2024-01-30T07:33:50;0.00;0.00;0.00
33507;PMS7003;25568;37.410;-122.096;2024-01-30T07:36:20;0.00;0.00;0.00
33507;PMS7003;25568;37.410;-122.096;2024-01-30T07:38:51;0.00;0.00;0.00
33507;PMS7003;25568;37.410;-122.096;2024-01-30T07:41:22;0.00;0.00;0.00
33507;PMS7003;25568;37.410;-122.096;2024-01-30T07:43:55;1.00;0.00;0.00
33507;PMS7003;25568;37.410;-122.096;2024-01-30T07:46:25;0.00;0.00;0.00
33507;PMS7003;25568;37.410;-122.096;2024-01-30T07:48:54;0.00;0.00;0.00
33507;PMS7003;25568;37.410;-122.096;2024-01-30T07:51:24;0.25;0.00;0.00
33507;PMS7003;25568;37.410;-122.096;2024-01-30T07:53:55;0.00;0.00;0.00
33507;PMS7003;25568;37.410;-122.096;2024-01-30T07:56:25;0.00;0.00;0.00
33507;PMS7003;25568;37.410;-122.096;2024-01-30T07:58:55;0.00;0.00;0.00
33507;PMS7003;25568;37.410;-122.096;2024-01-30T08:01:26;0.00;0.00;0.00
33507;PMS7003;25568;37.410;-122.096;2024-01-30T08:03:56;0.00;0.00;0.00
33507;PMS7003;25568;37.410;-122.096;2024-01-30T08:06:25;0.00;0.00;0.00
33507;PMS7003;25568;37.410;-122.096;2024-01-30T08:08:57;0.00;0.00;0.00
33507;PMS7003;25568;37.410;-122.096;2024-01-30T08:11:26;0.00;0.00;0.00
33507;PMS7003;25568;37.410;-122.096;2024-01-30T08:13:57;0.00;0.00;0.00
33507;PMS7003;25568;37.410;-122.096;2024-01-30T08:16:26;0.00;0.00;0.00
33507;PMS7003;25568;37.410;-122.096;2024-01-30T08:19:00;0.00;0.00;0.00
33507;PMS7003;25568;37.410;-122.096;2024-01-30T08:21:30;0.00;0.00;0.00
33507;PMS7003;25568;37.410;-122.096;2024-01-30T08:24:05;0.00;0.00;0.00
33507;PMS7003;25568;37.410;-122.096;2024-01-30T08:26:34;0.50;0.00;0.00
33507;PMS7003;25568;37.410;-122.096;2024-01-30T08:29:04;0.00;0.00;0.00
33507;PMS7003;25568;37.410;-122.096;2024-01-30T08:31:37;0.00;0.00;0.00
33507;PMS7003;25568;37.410;-122.096;2024-01-30T08:34:06;0.00;0.00;0.00
33507;PMS7003;25568;37.410;-122.096;2024-01-30T08:36:36;0.00;0.00;0.00
33507;PMS7003;25568;37.410;-122.096;2024-01-30T08:39:07;0.00;0.00;0.00
33507;PMS7003;25568;37.410;-122.096;2024-01-30T08:41:37;0.00;0.00;0.00
33507;PMS7003;25568;37.410;-122.096;2024-01-30T08:44:09;0.00;0.00;0.00
33507;PMS7003;25568;37.410;-122.096;2024-01-30T08:46:39;0.00;0.00;0.00
33507;PMS7003;25568;37.410;-122.096;2024-01-30T08:49:08;0.00;0.00;0.00
33507;PMS7003;25568;37.410;-122.096;2024-01-30T08:51:38;0.00;0.00;0.00
33507;PMS7003;25568;37.410;-122.096;2024-01-30T08:54:10;0.00;0.00;0.00
33507;PMS7003;25568;37.410;-122.096;2024-01-30T08:56:40;0.00;0.00;0.00
33507;PMS7003;25568;37.410;-122.096;2024-01-30T08:59:09;0.00;0.00;0.00
33507;PMS7003;25568;37.410;-122.096;2024-01-30T09:01:38;0.00;0.00;0.00
33507;PMS7003;25568;37.410;-122.096;2024-01-30T09:04:08;0.00;0.00;0.00
33507;PMS7003;25568;37.410;-122.096;2024-01-30T09:06:38;0.00;0.00;0.00
33507;PMS7003;25568;37.410;-122.096;2024-01-30T09:09:09;0.00;0.00;0.00
33507;PMS7003;25568;37.410;-122.096;2024-01-30T09:11:40;0.00;0.00;0.00
33507;PMS7003;25568;37.410;-122.096;2024-01-30T09:14:09;0.00;0.00;0.00
33507;PMS7003;25568;37.410;-122.096;2024-01-30T09:16:41;0.00;0.00;0.00
33507;PMS7003;25568;37.410;-122.096;2024-01-30T09:19:10;0.00;0.00;0.00
33507;PMS7003;25568;37.410;-122.096;2024-01-30T09:21:41;0.00;0.00;0.00
33507;PMS7003;25568;37.410;-122.096;2024-01-30T09:24:12;0.00;0.00;0.00
33507;PMS7003;25568;37.410;-122.096;2024-01-30T09:26:43;0.00;0.00;0.00
33507;PMS7003;25568;37.410;-122.096;2024-01-30T09:29:14;0.00;0.00;0.00
33507;PMS7003;25568;37.410;-122.096;2024-01-30T09:31:44;0.00;0.00;0.00
33507;PMS7003;25568;37.410;-122.096;2024-01-30T09:34:15;0.00;0.00;0.00
33507;PMS7003;25568;37.410;-122.096;2024-01-30T09:36:45;0.00;0.00;0.00
33507;PMS7003;25568;37.410;-122.096;2024-01-30T09:39:16;0.00;0.00;0.00
33507;PMS7003;25568;37.410;-122.096;2024-01-30T09:41:48;0.00;0.00;0.00
33507;PMS7003;25568;37.410;-122.096;2024-01-30T09:44:21;0.00;0.00;0.00
33507;PMS7003;25568;37.410;-122.096;2024-01-30T09:46:52;0.00;0.00;0.00
33507;PMS7003;25568;37.410;-122.096;2024-01-30T09:49:24;0.00;0.00;0.00
33507;PMS7003;25568;37.410;-122.096;2024-01-30T09:51:54;0.00;0.00;0.00
33507;PMS7003;25568;37.410;-122.096;2024-01-30T09:54:25;0.00;0.00;0.00
33507;PMS7003;25568;37.410;-122.096;2024-01-30T09:56:55;0.00;0.00;0.00
33507;PMS7003;25568;37.410;-122.096;2024-01-30T09:59:25;0.00;0.00;0.00
33507;PMS7003;25568;37.410;-122.096;2024-01-30T10:01:54;0.00;0.00;0.00
33507;PMS7003;25568;37.410;-122.096;2024-01-30T10:04:24;0.00;0.00;0.00
33507;PMS7003;25568;37.410;-122.096;2024-01-30T10:06:54;0.00;0.00;0.00
33507;PMS7003;25568;37.410;-122.096;2024-01-30T10:09:31;0.00;0.00;0.00
33507;PMS7003;25568;37.410;-122.096;2024-01-30T10:12:01;0.00;0.00;0.00
33507;PMS7003;25568;37.410;-122.096;2024-01-30T10:14:31;0.00;0.00;0.00
33507;PMS7003;25568;37.410;-122.096;2024-01-30T10:17:01;0.00;0.00;0.00
33507;PMS7003;25568;37.410;-122.096;2024-01-30T10:19:32;0.00;0.00;0.00
33507;PMS7003;25568;37.410;-122.096;2024-01-30T10:22:02;0.00;0.00;0.00
33507;PMS7003;25568;37.410;-122.096;2024-01-30T10:24:35;0.00;0.00;0.00
33507;PMS7003;25568;37.410;-122.096;2024-01-30T10:27:07;0.00;0.00;0.00
33507;PMS7003;25568;37.410;-122.096;2024-01-30T10:29:37;0.00;0.00;0.00
33507;PMS7003;25568;37.410;-122.096;2024-01-30T10:32:07;1.50;0.00;0.00
33507;PMS7003;25568;37.410;-122.096;2024-01-30T10:34:36;0.00;0.00;0.00
33507;PMS7003;25568;37.410;-122.096;2024-01-30T10:37:07;0.00;0.00;0.00
33507;PMS7003;25568;37.410;-122.096;2024-01-30T10:39:43;0.00;0.00;0.00
33507;PMS7003;25568;37.410;-122.096;2024-01-30T10:42:13;0.00;0.00;0.00
33507;PMS7003;25568;37.410;-122.096;2024-01-30T10:44:47;0.00;0.00;0.00
33507;PMS7003;25568;37.410;-122.096;2024-01-30T10:47:26;0.00;0.00;0.00
33507;PMS7003;25568;37.410;-122.096;2024-01-30T10:49:56;0.00;0.00;0.00
33507;PMS7003;25568;37.410;-122.096;2024-01-30T10:52:26;0.00;0.00;0.00
33507;PMS7003;25568;37.410;-122.096;2024-01-30T10:54:58;0.00;0.00;0.00
33507;PMS7003;25568;37.410;-122.096;2024-01-30T10:57:32;0.00;0.00;0.00
33507;PMS7003;25568;37.410;-122.096;2024-01-30T11:00:03;0.00;0.00;0.00
33507;PMS7003;25568;37.410;-122.096;2024-01-30T11:02:36;0.00;0.00;0.00
33507;PMS7003;25568;37.410;-122.096;2024-01-30T11:05:07;0.00;0.00;0.00
33507;PMS7003;25568;37.410;-122.096;2024-01-30T11:07:38;0.00;0.00;0.00
33507;PMS7003;25568;37.410;-122.096;2024-01-30T11:10:11;0.00;0.00;0.00
33507;PMS7003;25568;37.410;-122.096;2024-01-30T11:12:41;0.00;0.00;0.00
33507;PMS7003;25568;37.410;-122.096;2024-01-30T11:15:12;0.00;0.00;0.00
33507;PMS7003;25568;37.410;-122.096;2024-01-30T11:17:42;0.00;0.00;0.00
33507;PMS7003;25568;37.410;-122.096;2024-01-30T11:20:12;0.00;0.00;0.00
33507;PMS7003;25568;37.410;-122.096;2024-01-30T11:22:45;0.00;0.00;0.00
33507;PMS7003;25568;37.410;-122.096;2024-01-30T11:25:20;0.00;0.00;0.00
33507;PMS7003;25568;37.410;-122.096;2024-01-30T11:27:53;0.00;0.00;0.00
33507;PMS7003;25568;37.410;-122.096;2024-01-30T11:30:23;0.00;0.00;0.00
33507;PMS7003;25568;37.410;-122.096;2024-01-30T11:33:00;0.00;0.00;0.00
33507;PMS7003;25568;37.410;-122.096;2024-01-30T11:35:32;0.00;0.00;0.00
33507;PMS7003;25568;37.410;-122.096;2024-01-30T11:38:03;0.00;0.00;0.00
33507;PMS7003;25568;37.410;-122.096;2024-01-30T11:40:36;0.00;0.00;0.00
33507;PMS7003;25568;37.410;-122.096;2024-01-30T11:43:06;0.00;0.00;0.00
33507;PMS7003;25568;37.410;-122.096;2024-01-30T11:45:36;0.00;0.00;0.00
33507;PMS7003;25568;37.410;-122.096;2024-01-30T11:48:07;0.00;0.00;0.00
33507;PMS7003;25568;37.410;-122.096;2024-01-30T11:50:36;0.00;0.00;0.00
33507;PMS7003;25568;37.410;-122.096;2024-01-30T11:53:07;0.00;0.00;0.00
33507;PMS7003;25568;37.410;-122.096;2024-01-30T11:55:38;0.00;0.00;0.00
33507;PMS7003;25568;37.410;-122.096;2024-01-30T11:58:08;0.00;0.00;0.00
33507;PMS7003;25568;37.410;-122.096;2024-01-30T12:00:37;0.00;0.00;0.00
33507;PMS7003;25568;37.410;-122.096;2024-01-30T12:03:07;0.00;0.00;0.00
33507;PMS7003;25568;37.410;-122.096;2024-01-30T12:05:39;0.00;0.00;0.00
33507;PMS7003;25568;37.410;-122.096;2024-01-30T12:08:14;0.00;0.00;0.00
33507;PMS7003;25568;37.410;-122.096;2024-01-30T12:10:46;0.00;0.00;0.00
33507;PMS7003;25568;37.410;-122.096;2024-01-30T12:13:23;0.00;0.00;0.00
33507;PMS7003;25568;37.410;-122.096;2024-01-30T12:15:53;0.00;0.00;0.00
33507;PMS7003;25568;37.410;-122.096;2024-01-30T12:18:23;0.00;0.00;0.00
33507;PMS7003;25568;37.410;-122.096;2024-01-30T12:20:58;0.00;0.00;0.00
33507;PMS7003;25568;37.410;-122.096;2024-01-30T12:23:30;0.00;0.00;0.00
33507;PMS7003;25568;37.410;-122.096;2024-01-30T12:26:02;0.00;0.00;0.00
33507;PMS7003;25568;37.410;-122.096;2024-01-30T12:28:32;0.00;0.00;0.00
33507;PMS7003;25568;37.410;-122.096;2024-01-30T12:31:02;0.00;0.00;0.00
33507;PMS7003;25568;37.410;-122.096;2024-01-30T12:33:35;0.00;0.00;0.00
33507;PMS7003;25568;37.410;-122.096;2024-01-30T12:36:05;0.00;0.00;0.00
33507;PMS7003;25568;37.410;-122.096;2024-01-30T12:38:35;0.00;0.00;0.00
33507;PMS7003;25568;37.410;-122.096;2024-01-30T12:41:09;0.00;0.00;0.00
33507;PMS7003;25568;37.410;-122.096;2024-01-30T12:43:41;0.00;0.00;0.00
33507;PMS7003;25568;37.410;-122.096;2024-01-30T12:46:13;0.00;0.00;0.00
33507;PMS7003;25568;37.410;-122.096;2024-01-30T12:48:44;0.00;0.00;0.00
33507;PMS7003;25568;37.410;-122.096;2024-01-30T12:51:14;0.00;0.00;0.00
33507;PMS7003;25568;37.410;-122.096;2024-01-30T12:53:44;0.00;0.00;0.00
33507;PMS7003;25568;37.410;-122.096;2024-01-30T12:56:18;0.00;0.00;0.00
33507;PMS7003;25568;37.410;-122.096;2024-01-30T12:58:47;0.00;0.00;0.00
33507;PMS7003;25568;37.410;-122.096;2024-01-30T13:01:19;0.00;0.00;0.00
33507;PMS7003;25568;37.410;-122.096;2024-01-30T13:03:50;0.00;0.00;0.00
33507;PMS7003;25568;37.410;-122.096;2024-01-30T13:06:20;0.00;0.00;0.00
33507;PMS7003;25568;37.410;-122.096;2024-01-30T13:08:49;0.00;0.00;0.00
33507;PMS7003;25568;37.410;-122.096;2024-01-30T13:11:20;0.00;0.00;0.00
33507;PMS7003;25568;37.410;-122.096;2024-01-30T13:13:51;0.00;0.00;0.00
33507;PMS7003;25568;37.410;-122.096;2024-01-30T13:16:20;0.00;0.00;0.00
33507;PMS7003;25568;37.410;-122.096;2024-01-30T13:18:50;0.00;0.00;0.00
33507;PMS7003;25568;37.410;-122.096;2024-01-30T13:21:21;0.00;0.00;0.00
33507;PMS7003;25568;37.410;-122.096;2024-01-30T13:23:50;0.00;0.00;0.00
33507;PMS7003;25568;37.410;-122.096;2024-01-30T13:26:22;0.00;0.00;0.00
33507;PMS7003;25568;37.410;-122.096;2024-01-30T13:28:52;0.00;0.00;0.00
33507;PMS7003;25568;37.410;-122.096;2024-01-30T13:31:22;0.00;0.00;0.00
33507;PMS7003;25568;37.410;-122.096;2024-01-30T13:33:52;0.00;0.00;0.00
33507;PMS7003;25568;37.410;-122.096;2024-01-30T13:36:22;0.00;0.00;0.00
33507;PMS7003;25568;37.410;-122.096;2024-01-30T13:38:52;0.00;0.00;0.00
33507;PMS7003;25568;37.410;-122.096;2024-01-30T13:41:24;0.00;0.00;0.00
33507;PMS7003;25568;37.410;-122.096;2024-01-30T13:43:55;0.00;0.00;0.00
33507;PMS7003;25568;37.410;-122.096;2024-01-30T13:46:24;0.00;0.00;0.00
33507;PMS7003;25568;37.410;-122.096;2024-01-30T13:48:54;0.00;0.00;0.00
33507;PMS7003;25568;37.410;-122.096;2024-01-30T13:51:23;0.00;0.00;0.00
33507;PMS7003;25568;37.410;-122.096;2024-01-30T13:53:53;0.00;0.00;0.00
33507;PMS7003;25568;37.410;-122.096;2024-01-30T13:56:25;0.00;0.00;0.00
33507;PMS7003;25568;37.410;-122.096;2024-01-30T13:58:57;0.00;0.00;0.00
33507;PMS7003;25568;37.410;-122.096;2024-01-30T14:01:30;0.00;0.00;0.00
33507;PMS7003;25568;37.410;-122.096;2024-01-30T14:04:00;0.00;0.00;0.00